Time;durP1;ratioP1;P1;durP2;ratioP2;P2;SDS_P1;SDS_P2;PMS_P1;PMS_P2;Temp;Humidity;BMP_temperature;BMP_pressure;BME280_temperature;BME280_humidity;BME280_pressure;Samples;Min_cycle;Max_cycle;Signal;HPM_P1;HPM_P2
2021/05/08 00:00:00;;;;;;;17.08;10.07;;;16.00;52.10;;;;;;6181853;23;20024;-64
2021/05/08 00:02:26;;;;;;;14.20;9.18;;;16.00;52.00;;;;;;6182154;23;20116;-64
2021/05/08 00:04:51;;;;;;;15.20;9.73;;;16.00;51.80;;;;;;6181863;23;20017;-64
2021/05/08 00:07:17;;;;;;;14.70;8.73;;;15.90;51.80;;;;;;6131327;23;20013;-64
2021/05/08 00:09:43;;;;;;;12.60;7.68;;;15.90;52.10;;;;;;6157415;23;20347;-62
2021/05/08 00:12:09;;;;;;;11.85;8.30;;;15.80;51.80;;;;;;6181255;23;20028;-62
2021/05/08 00:14:36;;;;;;;11.60;7.75;;;15.70;52.00;;;;;;6181601;23;20096;-66
2021/05/08 00:17:03;;;;;;;16.00;8.75;;;15.70;52.40;;;;;;6181579;23;20045;-65
2021/05/08 00:19:28;;;;;;;11.20;7.50;;;15.60;52.50;;;;;;6155880;23;20028;-63
2021/05/08 00:21:54;;;;;;;10.63;7.88;;;15.60;52.30;;;;;;6182383;23;20292;-64
2021/05/08 00:24:20;;;;;;;11.10;7.80;;;15.50;52.50;;;;;;6182925;23;20025;-64
2021/05/08 00:26:46;;;;;;;12.43;7.95;;;15.50;52.60;;;;;;6181736;23;20076;-64
2021/05/08 00:29:12;;;;;;;10.75;7.72;;;15.30;52.50;;;;;;6181165;23;20021;-64
2021/05/08 00:31:38;;;;;;;12.05;7.60;;;15.30;53.00;;;;;;6181962;23;20009;-67
2021/05/08 00:34:06;;;;;;;15.13;7.10;;;15.30;53.40;;;;;;6182294;23;20020;-67
2021/05/08 00:36:33;;;;;;;12.48;7.80;;;15.30;53.50;;;;;;6182117;23;20013;-67
2021/05/08 00:38:59;;;;;;;15.48;7.75;;;15.50;53.40;;;;;;6183254;23;20017;-67
2021/05/08 00:41:25;;;;;;;13.27;7.60;;;15.60;53.10;;;;;;6182656;23;20019;-67
2021/05/08 00:43:56;;;;;;;10.57;7.25;;;15.70;52.80;;;;;;6181438;23;20017;-67
2021/05/08 00:46:23;;;;;;;10.60;7.18;;;15.70;52.50;;;;;;6156861;23;20013;-67
2021/05/08 00:48:48;;;;;;;12.20;7.53;;;15.80;52.30;;;;;;6181959;23;20020;-67
2021/05/08 00:51:14;;;;;;;11.48;7.80;;;15.80;52.20;;;;;;6183451;23;20028;-67
2021/05/08 00:53:40;;;;;;;11.25;6.90;;;15.80;52.00;;;;;;6181867;23;20021;-67
2021/05/08 00:56:07;;;;;;;9.70;6.80;;;15.80;51.40;;;;;;6181411;23;20849;-67
2021/05/08 00:58:34;;;;;;;9.27;6.25;;;15.80;51.50;;;;;;6182061;23;20313;-67
2021/05/08 01:01:00;;;;;;;10.60;6.65;;;15.80;51.60;;;;;;6155678;23;20056;-67
2021/05/08 01:03:26;;;;;;;13.32;7.18;;;15.90;51.50;;;;;;6182203;23;20099;-67
2021/05/08 01:05:52;;;;;;;8.75;5.95;;;15.90;51.60;;;;;;6181147;23;20037;-67
2021/05/08 01:08:18;;;;;;;9.90;5.90;;;15.90;51.40;;;;;;6156295;23;20027;-67
2021/05/08 01:10:45;;;;;;;9.88;5.70;;;16.00;51.20;;;;;;6182022;23;20494;-67
2021/05/08 01:13:11;;;;;;;9.80;5.25;;;16.00;51.30;;;;;;6181111;23;20517;-67
2021/05/08 01:15:37;;;;;;;9.82;5.55;;;15.90;51.40;;;;;;6182316;23;20021;-67
2021/05/08 01:18:04;;;;;;;8.88;6.05;;;16.00;51.40;;;;;;6155546;23;20016;-66
2021/05/08 01:20:30;;;;;;;10.15;5.85;;;15.90;51.30;;;;;;6181755;23;20017;-67
2021/05/08 01:22:55;;;;;;;10.40;5.53;;;15.90;51.30;;;;;;6182055;23;20013;-67
2021/05/08 01:25:25;;;;;;;9.50;5.60;;;16.00;51.40;;;;;;6155984;23;20331;-67
2021/05/08 01:27:56;;;;;;;10.82;5.50;;;16.00;51.40;;;;;;6181145;23;20040;-67
2021/05/08 01:30:25;;;;;;;10.02;6.00;;;16.00;51.40;;;;;;6154638;23;20024;-66
2021/05/08 01:32:52;;;;;;;7.68;4.78;;;16.00;51.30;;;;;;6180852;23;20441;-66
2021/05/08 01:35:19;;;;;;;8.38;5.07;;;16.00;50.70;;;;;;6180980;23;20067;-67
2021/05/08 01:37:45;;;;;;;11.45;6.32;;;16.00;50.70;;;;;;6183834;23;20013;-66
2021/05/08 01:40:13;;;;;;;9.07;5.53;;;15.90;51.00;;;;;;6180653;23;20107;-68
2021/05/08 01:42:40;;;;;;;14.15;6.50;;;15.90;51.00;;;;;;6154426;23;20019;-66
2021/05/08 01:45:14;;;;;;;11.88;5.78;;;15.90;51.00;;;;;;6180531;23;20017;-66
2021/05/08 01:47:40;;;;;;;10.80;6.07;;;15.90;51.00;;;;;;6182026;23;20152;-66
2021/05/08 01:50:09;;;;;;;10.50;5.70;;;15.90;50.90;;;;;;6182232;23;20020;-66
2021/05/08 01:52:35;;;;;;;9.02;5.05;;;15.90;50.50;;;;;;6180447;23;20017;-66
2021/05/08 01:55:08;;;;;;;8.43;5.35;;;15.90;50.50;;;;;;6180658;23;20042;-66
2021/05/08 01:57:42;;;;;;;11.20;5.68;;;15.90;50.70;;;;;;6180760;23;20077;-66
2021/05/08 02:00:12;;;;;;;9.93;5.30;;;15.90;50.70;;;;;;6180109;23;20017;-66
2021/05/08 02:02:37;;;;;;;8.35;4.82;;;15.90;50.60;;;;;;6180513;23;20103;-66
2021/05/08 02:05:06;;;;;;;9.13;5.18;;;15.90;50.80;;;;;;6180385;23;20625;-66
2021/05/08 02:07:32;;;;;;;8.40;4.95;;;15.90;51.20;;;;;;6180680;23;20017;-66
2021/05/08 02:09:57;;;;;;;8.43;4.75;;;15.80;50.50;;;;;;6183141;23;20021;-66
2021/05/08 02:12:28;;;;;;;9.25;5.40;;;15.70;49.70;;;;;;6183040;23;20060;-66
2021/05/08 02:14:55;;;;;;;8.60;5.57;;;15.70;50.30;;;;;;6181518;23;20013;-66
2021/05/08 02:17:21;;;;;;;9.60;4.82;;;15.60;50.80;;;;;;6181567;23;20087;-66
2021/05/08 02:19:47;;;;;;;11.38;5.47;;;15.20;50.90;;;;;;6180365;23;20036;-66
2021/05/08 02:22:13;;;;;;;8.48;4.35;;;14.90;51.60;;;;;;6180790;23;20415;-67
2021/05/08 02:24:40;;;;;;;11.00;4.60;;;14.60;51.90;;;;;;6182877;23;20025;-67
2021/05/08 02:27:07;;;;;;;7.38;3.20;;;14.20;52.80;;;;;;6156242;23;20506;-67
2021/05/08 02:29:35;;;;;;;10.23;4.25;;;13.70;53.10;;;;;;6155482;23;20025;-67
2021/05/08 02:32:02;;;;;;;7.40;3.33;;;13.20;54.40;;;;;;6181522;23;20013;-68
2021/05/08 02:34:27;;;;;;;7.18;2.53;;;12.70;54.40;;;;;;6155837;23;20017;-68
2021/05/08 02:36:53;;;;;;;7.65;3.65;;;12.10;53.50;;;;;;6184271;23;20021;-68
2021/05/08 02:39:19;;;;;;;8.40;3.67;;;11.30;55.50;;;;;;6184547;23;20044;-68
2021/05/08 02:41:45;;;;;;;8.18;4.10;;;10.60;58.10;;;;;;6182883;23;20021;-67
2021/05/08 02:44:11;;;;;;;6.75;3.00;;;10.30;59.70;;;;;;6183519;23;20024;-67
2021/05/08 02:46:37;;;;;;;10.32;4.00;;;10.30;60.10;;;;;;6183623;23;20463;-67
2021/05/08 02:49:02;;;;;;;9.55;4.07;;;10.30;62.00;;;;;;6184394;23;20017;-67
2021/05/08 02:51:29;;;;;;;7.97;4.13;;;10.20;62.50;;;;;;6184243;23;20063;-67
2021/05/08 02:53:55;;;;;;;7.80;3.58;;;10.10;62.20;;;;;;6157196;23;20541;-67
2021/05/08 02:56:21;;;;;;;7.47;3.67;;;10.10;62.20;;;;;;6182206;23;20067;-67
2021/05/08 02:58:46;;;;;;;8.60;4.60;;;10.00;62.80;;;;;;6182165;23;20112;-67
2021/05/08 03:01:12;;;;;;;8.73;3.70;;;9.90;63.40;;;;;;6155933;23;20044;-67
2021/05/08 03:03:38;;;;;;;6.53;3.53;;;10.00;63.70;;;;;;6183410;23;20342;-67
2021/05/08 03:06:06;;;;;;;5.68;2.65;;;10.10;63.10;;;;;;6156015;23;20014;-67
2021/05/08 03:08:32;;;;;;;12.38;4.25;;;10.30;62.00;;;;;;6182130;23;20378;-66
2021/05/08 03:10:58;;;;;;;7.38;3.22;;;10.10;60.90;;;;;;6184794;23;20019;-66
2021/05/08 03:13:36;;;;;;;9.15;3.72;;;9.70;61.40;;;;;;6183847;23;20019;-66
2021/05/08 03:16:01;;;;;;;8.57;3.22;;;9.50;63.70;;;;;;6182253;23;20013;-66
2021/05/08 03:18:28;;;;;;;6.95;3.33;;;9.40;63.00;;;;;;6183092;23;20677;-67
2021/05/08 03:20:53;;;;;;;8.50;3.58;;;9.20;63.00;;;;;;6156461;23;20047;-67
2021/05/08 03:23:19;;;;;;;5.97;3.55;;;9.30;65.80;;;;;;6155821;23;20084;-67
2021/05/08 03:25:45;;;;;;;5.03;3.03;;;9.70;66.50;;;;;;6184538;23;20072;-67
2021/05/08 03:28:11;;;;;;;7.13;3.60;;;10.40;64.60;;;;;;6156053;23;20059;-67
2021/05/08 03:30:37;;;;;;;6.95;3.28;;;10.80;63.60;;;;;;6182040;23;20024;-67
2021/05/08 03:33:03;;;;;;;5.70;3.15;;;11.10;61.50;;;;;;6158074;23;20013;-67
2021/05/08 03:35:30;;;;;;;6.82;2.80;;;11.10;59.30;;;;;;6184090;23;20084;-66
2021/05/08 03:37:55;;;;;;;5.95;2.85;;;10.80;59.50;;;;;;6184257;23;20076;-66
2021/05/08 03:40:22;;;;;;;6.88;3.72;;;10.50;59.20;;;;;;6182804;23;20058;-66
2021/05/08 03:42:48;;;;;;;6.15;3.35;;;10.30;61.80;;;;;;6183291;23;20013;-66
2021/05/08 03:45:14;;;;;;;6.03;3.30;;;10.40;62.30;;;;;;6182266;23;20095;-66
2021/05/08 03:47:40;;;;;;;8.43;3.17;;;10.80;62.90;;;;;;6182957;23;20382;-65
2021/05/08 03:50:06;;;;;;;5.95;3.53;;;11.20;61.40;;;;;;6181673;23;20032;-66
2021/05/08 03:52:32;;;;;;;6.88;3.35;;;11.10;60.40;;;;;;6181938;23;20044;-66
2021/05/08 03:55:00;;;;;;;8.32;3.05;;;10.80;61.30;;;;;;6182784;23;20017;-65
2021/05/08 03:57:25;;;;;;;5.65;3.03;;;10.70;62.70;;;;;;6183213;23;20020;-66
2021/05/08 03:59:51;;;;;;;7.63;2.97;;;11.10;63.50;;;;;;6182406;23;20017;-66
2021/05/08 04:02:17;;;;;;;5.07;2.60;;;11.60;63.20;;;;;;6182045;23;20040;-66
2021/05/08 04:04:43;;;;;;;8.10;3.88;;;12.10;60.60;;;;;;6182909;23;20017;-65
2021/05/08 04:07:09;;;;;;;6.00;3.20;;;12.30;59.10;;;;;;6156970;23;20057;-65
2021/05/08 04:09:34;;;;;;;6.30;2.95;;;12.20;57.90;;;;;;6182957;23;20021;-64
2021/05/08 04:12:00;;;;;;;6.82;3.13;;;11.70;58.10;;;;;;6183291;23;20017;-64
2021/05/08 04:14:35;;;;;;;5.78;2.70;;;11.70;59.50;;;;;;6157188;23;20033;-64
2021/05/08 04:17:00;;;;;;;6.43;2.92;;;11.80;60.30;;;;;;6181834;23;20033;-64
2021/05/08 04:19:28;;;;;;;5.38;3.08;;;12.10;60.40;;;;;;6154859;23;20027;-64
2021/05/08 04:21:54;;;;;;;7.55;2.88;;;12.30;59.60;;;;;;6183591;23;20434;-64
2021/05/08 04:24:20;;;;;;;5.25;3.28;;;12.30;59.40;;;;;;6182360;23;20016;-64
2021/05/08 04:26:45;;;;;;;4.93;2.88;;;12.20;59.60;;;;;;6182430;23;20017;-64
2021/05/08 04:29:11;;;;;;;5.35;3.17;;;12.20;60.00;;;;;;6182900;23;20150;-64
2021/05/08 04:31:37;;;;;;;5.60;2.70;;;12.50;60.30;;;;;;6181624;23;20413;-65
2021/05/08 04:34:04;;;;;;;7.78;2.88;;;12.70;59.60;;;;;;6183588;23;20545;-65
2021/05/08 04:36:30;;;;;;;4.97;2.38;;;13.10;58.70;;;;;;6181686;23;20021;-67
2021/05/08 04:38:56;;;;;;;4.80;2.67;;;13.40;57.90;;;;;;6182696;23;20028;-64
2021/05/08 04:41:22;;;;;;;3.83;2.53;;;13.60;57.30;;;;;;6181613;23;20039;-65
2021/05/08 04:43:48;;;;;;;4.03;2.20;;;13.80;56.40;;;;;;6132090;23;20017;-65
2021/05/08 04:46:14;;;;;;;3.97;2.33;;;13.60;54.60;;;;;;6155469;23;20016;-65
2021/05/08 04:48:41;;;;;;;3.83;2.28;;;13.50;55.60;;;;;;6183124;23;20023;-64
2021/05/08 04:51:07;;;;;;;3.70;2.17;;;13.60;56.20;;;;;;6181845;23;20013;-64
2021/05/08 04:53:33;;;;;;;4.53;2.58;;;13.70;56.00;;;;;;6183547;23;20013;-64
2021/05/08 04:56:02;;;;;;;3.80;2.20;;;14.00;55.80;;;;;;6180876;23;20442;-64
2021/05/08 04:58:28;;;;;;;9.05;2.28;;;14.20;54.90;;;;;;6154383;23;20070;-64
2021/05/08 05:00:54;;;;;;;4.93;2.30;;;14.30;54.40;;;;;;6155308;23;20013;-66
2021/05/08 05:03:22;;;;;;;4.68;1.95;;;14.30;54.30;;;;;;6156227;23;20013;-66
2021/05/08 05:05:47;;;;;;;5.18;2.78;;;14.20;53.60;;;;;;6181035;23;20120;-65
2021/05/08 05:08:20;;;;;;;5.28;2.53;;;13.60;51.90;;;;;;6182106;23;20017;-65
2021/05/08 05:10:51;;;;;;;7.43;3.03;;;12.60;52.30;;;;;;6182794;23;20017;-65
2021/05/08 05:13:16;;;;;;;4.65;2.25;;;11.40;54.00;;;;;;6156848;23;20092;-65
2021/05/08 05:15:44;;;;;;;4.65;2.70;;;10.70;58.90;;;;;;6180883;23;20017;-65
2021/05/08 05:18:10;;;;;;;4.78;2.03;;;10.50;60.00;;;;;;6155529;23;20016;-65
2021/05/08 05:20:37;;;;;;;6.07;3.20;;;10.30;61.00;;;;;;6155225;23;20017;-65
2021/05/08 05:23:04;;;;;;;8.07;3.95;;;9.90;60.90;;;;;;6183665;23;20009;-65
2021/05/08 05:25:30;;;;;;;3.70;2.35;;;9.30;61.20;;;;;;6180977;23;20021;-65
2021/05/08 05:27:59;;;;;;;4.40;2.78;;;9.30;63.80;;;;;;6182258;23;20020;-65
2021/05/08 05:30:25;;;;;;;5.15;2.30;;;9.80;63.60;;;;;;6183442;23;20485;-65
2021/05/08 05:32:51;;;;;;;4.68;2.85;;;10.40;63.90;;;;;;6154601;23;20013;-64
2021/05/08 05:35:17;;;;;;;6.70;3.20;;;11.00;61.80;;;;;;6182928;23;20343;-66
2021/05/08 05:37:43;;;;;;;7.30;2.30;;;11.50;60.90;;;;;;6181761;23;20024;-64
2021/05/08 05:40:09;;;;;;;7.60;3.90;;;11.80;59.70;;;;;;6183031;23;20032;-65
2021/05/08 05:42:35;;;;;;;5.38;2.33;;;11.90;58.80;;;;;;6183359;23;20021;-64
2021/05/08 05:45:00;;;;;;;3.90;2.65;;;11.90;59.40;;;;;;6180560;23;20415;-67
2021/05/08 05:47:29;;;;;;;5.35;2.65;;;12.10;59.40;;;;;;6181282;23;20017;-68
2021/05/08 05:49:56;;;;;;;7.07;4.57;;;12.40;59.40;;;;;;6180835;23;20017;-68
2021/05/08 05:52:24;;;;;;;6.32;4.38;;;12.60;58.40;;;;;;6180146;23;20013;-71
2021/05/08 05:54:51;;;;;;;4.20;2.53;;;12.50;57.20;;;;;;6183273;23;20358;-68
2021/05/08 05:57:18;;;;;;;4.50;2.95;;;12.20;58.40;;;;;;6181500;23;20019;-71
2021/05/08 05:59:44;;;;;;;4.85;2.63;;;12.10;59.20;;;;;;6180449;23;20020;-70
2021/05/08 06:02:12;;;;;;;8.35;3.08;;;12.00;59.50;;;;;;6155165;23;20024;-68
2021/05/08 06:04:38;;;;;;;6.30;4.03;;;12.10;59.40;;;;;;6180666;23;20029;-70
2021/05/08 06:07:04;;;;;;;6.13;3.80;;;12.10;58.70;;;;;;6180725;23;20013;-71
2021/05/08 06:09:30;;;;;;;3.47;2.05;;;11.90;58.70;;;;;;6181371;23;20359;-70
2021/05/08 06:11:57;;;;;;;6.63;3.60;;;12.00;60.20;;;;;;6185468;23;20064;-70
2021/05/08 06:14:24;;;;;;;6.18;3.75;;;12.20;59.40;;;;;;6156417;23;20013;-67
2021/05/08 06:16:50;;;;;;;9.15;3.60;;;11.90;58.70;;;;;;6158497;23;20083;-67
2021/05/08 06:19:17;;;;;;;5.35;2.75;;;11.60;59.90;;;;;;6184659;23;20020;-67
2021/05/08 06:21:43;;;;;;;6.25;4.47;;;11.20;61.20;;;;;;6157001;23;20021;-67
2021/05/08 06:24:11;;;;;;;5.63;5.00;;;11.00;61.80;;;;;;6183819;23;20012;-67
2021/05/08 06:26:37;;;;;;;12.15;2.85;;;10.60;62.60;;;;;;6183870;23;20013;-68
2021/05/08 06:29:04;;;;;;;5.53;3.20;;;10.40;64.20;;;;;;6131382;23;20802;-67
2021/05/08 06:31:30;;;;;;;7.57;4.85;;;10.50;64.50;;;;;;6182995;23;20012;-67
2021/05/08 06:33:56;;;;;;;11.07;3.42;;;10.70;64.30;;;;;;6157348;23;20009;-67
2021/05/08 06:36:22;;;;;;;5.40;3.22;;;10.70;64.30;;;;;;6158778;23;20794;-67
2021/05/08 06:38:48;;;;;;;5.55;3.92;;;11.00;64.40;;;;;;6157377;23;20017;-67
2021/05/08 06:41:15;;;;;;;7.30;4.45;;;11.70;63.30;;;;;;6158489;23;20514;-67
2021/05/08 06:43:41;;;;;;;8.02;4.18;;;12.40;60.30;;;;;;6182582;23;20083;-67
2021/05/08 06:46:08;;;;;;;4.45;2.95;;;12.60;58.20;;;;;;6184809;23;20009;-67
2021/05/08 06:48:37;;;;;;;6.88;5.05;;;12.50;58.20;;;;;;6179111;23;20024;-67
2021/05/08 06:51:06;;;;;;;8.52;4.80;;;12.10;58.40;;;;;;6181338;23;20013;-67
2021/05/08 06:53:32;;;;;;;10.98;4.70;;;11.60;59.00;;;;;;6155824;23;20009;-68
2021/05/08 06:55:58;;;;;;;7.57;5.28;;;11.20;59.40;;;;;;6182022;23;20020;-67
2021/05/08 06:58:24;;;;;;;8.93;5.55;;;10.90;60.60;;;;;;6155548;23;20013;-68
2021/05/08 07:00:50;;;;;;;8.40;5.22;;;10.60;60.80;;;;;;6155537;23;20013;-67
2021/05/08 07:03:16;;;;;;;5.68;4.55;;;10.50;61.10;;;;;;6183363;23;20013;-68
2021/05/08 07:05:42;;;;;;;11.23;5.63;;;10.30;61.20;;;;;;6154488;23;20020;-67
2021/05/08 07:08:08;;;;;;;9.13;5.97;;;10.30;61.70;;;;;;6156866;23;20017;-68
2021/05/08 07:10:46;;;;;;;7.15;5.82;;;10.20;61.80;;;;;;6157646;23;20339;-68
2021/05/08 07:13:12;;;;;;;7.85;3.45;;;10.30;62.00;;;;;;6181712;23;20035;-69
2021/05/08 07:15:38;;;;;;;9.23;5.60;;;10.70;62.90;;;;;;6158101;23;20017;-69
2021/05/08 07:18:06;;;;;;;8.40;4.82;;;11.30;60.40;;;;;;6155572;23;20407;-67
2021/05/08 07:20:32;;;;;;;16.35;6.40;;;11.50;59.00;;;;;;6181228;23;20112;-66
2021/05/08 07:22:59;;;;;;;8.15;4.32;;;11.80;58.70;;;;;;6183031;23;20017;-66
2021/05/08 07:25:26;;;;;;;8.02;6.10;;;11.80;58.20;;;;;;6183670;23;20012;-65
2021/05/08 07:27:52;;;;;;;8.30;6.10;;;11.50;58.10;;;;;;6181363;23;20032;-65
2021/05/08 07:30:19;;;;;;;8.80;6.55;;;11.60;58.60;;;;;;6181505;23;20017;-66
2021/05/08 07:32:45;;;;;;;9.75;6.65;;;11.80;57.80;;;;;;6182805;23;20117;-68
2021/05/08 07:35:11;;;;;;;10.43;8.25;;;11.40;57.10;;;;;;6181711;23;20112;-67
2021/05/08 07:37:37;;;;;;;13.50;7.00;;;11.10;57.80;;;;;;6181417;23;20016;-68
2021/05/08 07:40:04;;;;;;;10.63;7.20;;;11.00;59.30;;;;;;6183745;23;20028;-67
2021/05/08 07:42:30;;;;;;;10.15;7.82;;;10.90;59.80;;;;;;6157758;23;20120;-67
2021/05/08 07:44:55;;;;;;;9.77;8.00;;;11.10;60.30;;;;;;6183100;23;20083;-66
2021/05/08 07:47:23;;;;;;;9.77;7.35;;;11.10;59.20;;;;;;6183418;23;20013;-67
2021/05/08 07:49:49;;;;;;;8.60;7.68;;;11.00;59.40;;;;;;6181364;23;20099;-67
2021/05/08 07:52:14;;;;;;;9.65;7.75;;;11.10;59.80;;;;;;6182482;23;20020;-68
2021/05/08 07:54:40;;;;;;;10.68;8.13;;;11.30;59.60;;;;;;6183659;23;20473;-72
2021/05/08 07:57:06;;;;;;;10.68;5.35;;;11.20;59.50;;;;;;6184606;23;20013;-65
2021/05/08 07:59:32;;;;;;;8.13;6.43;;;11.20;59.80;;;;;;6182101;23;20048;-66
2021/05/08 08:01:57;;;;;;;10.13;7.68;;;11.20;59.80;;;;;;6182221;23;20020;-66
2021/05/08 08:04:23;;;;;;;7.93;6.40;;;11.40;59.10;;;;;;6183064;23;20137;-65
2021/05/08 08:06:49;;;;;;;10.18;7.70;;;11.50;58.80;;;;;;6181737;23;20016;-65
2021/05/08 08:09:15;;;;;;;9.73;7.47;;;11.40;58.30;;;;;;6183610;23;20095;-68
2021/05/08 08:11:40;;;;;;;10.88;7.63;;;11.40;58.00;;;;;;6183548;23;20013;-67
2021/05/08 08:14:06;;;;;;;9.20;5.97;;;11.40;58.10;;;;;;6157155;23;20043;-65
2021/05/08 08:16:33;;;;;;;12.57;8.27;;;11.40;58.30;;;;;;6181490;23;20379;-70
2021/05/08 08:19:00;;;;;;;12.70;8.00;;;11.50;58.00;;;;;;6182621;23;20017;-69
2021/05/08 08:21:26;;;;;;;11.68;7.60;;;11.30;57.40;;;;;;6183111;23;20573;-69
2021/05/08 08:23:53;;;;;;;10.32;7.53;;;11.30;57.80;;;;;;6183614;23;20470;-70
2021/05/08 08:26:19;;;;;;;10.63;7.60;;;11.20;58.10;;;;;;6183328;23;20041;-70
2021/05/08 08:28:45;;;;;;;8.93;7.07;;;11.10;58.00;;;;;;6132414;23;20028;-70
2021/05/08 08:31:11;;;;;;;12.15;7.00;;;11.10;58.00;;;;;;6181348;23;20013;-70
2021/05/08 08:33:37;;;;;;;8.77;5.85;;;10.90;58.30;;;;;;6181865;23;20087;-69
2021/05/08 08:36:03;;;;;;;10.43;6.18;;;10.90;58.00;;;;;;6183478;23;20067;-69
2021/05/08 08:38:29;;;;;;;9.40;7.35;;;10.90;57.80;;;;;;6155716;23;20067;-67
2021/05/08 08:40:56;;;;;;;8.77;6.00;;;11.00;57.40;;;;;;6183718;23;20103;-66
2021/05/08 08:43:23;;;;;;;7.53;5.80;;;11.10;57.90;;;;;;6183404;23;20009;-69
2021/05/08 08:45:49;;;;;;;9.73;5.50;;;11.30;56.40;;;;;;6156170;23;20033;-70
2021/05/08 08:48:15;;;;;;;9.48;5.90;;;11.30;55.30;;;;;;6182561;23;20080;-71
2021/05/08 08:50:41;;;;;;;7.15;5.75;;;11.40;55.50;;;;;;6181714;23;20020;-69
2021/05/08 08:53:12;;;;;;;7.80;5.75;;;11.60;55.40;;;;;;6156128;23;20021;-69
2021/05/08 08:55:43;;;;;;;9.73;6.22;;;11.70;55.40;;;;;;6181952;23;20087;-70
2021/05/08 08:58:09;;;;;;;8.27;5.90;;;11.90;54.60;;;;;;6154899;23;20431;-70
2021/05/08 09:00:35;;;;;;;8.85;6.63;;;11.80;53.70;;;;;;6181054;23;20021;-68
2021/05/08 09:03:02;;;;;;;8.85;5.95;;;11.90;54.20;;;;;;6155595;23;20025;-72
2021/05/08 09:05:28;;;;;;;7.82;5.75;;;11.90;54.60;;;;;;6182635;23;20009;-68
2021/05/08 09:08:00;;;;;;;11.25;5.65;;;12.00;53.60;;;;;;6183370;23;20075;-70
2021/05/08 09:10:30;;;;;;;6.70;5.68;;;12.00;53.60;;;;;;6180852;23;20517;-70
2021/05/08 09:12:58;;;;;;;6.30;5.30;;;12.00;52.70;;;;;;6181759;23;20068;-70
2021/05/08 09:15:33;;;;;;;7.28;5.68;;;12.00;52.60;;;;;;6180712;23;20020;-71
2021/05/08 09:18:00;;;;;;;8.13;6.03;;;12.00;52.40;;;;;;6181660;23;20719;-70
2021/05/08 09:20:41;;;;;;;7.35;5.35;;;11.90;52.40;;;;;;6180578;23;20118;-71
2021/05/08 09:23:29;;;;;;;8.20;4.85;;;12.00;51.70;;;;;;6181602;23;20046;-70
2021/05/08 09:26:00;;;;;;;9.65;4.90;;;12.10;51.10;;;;;;6181244;23;20092;-71
2021/05/08 09:28:29;;;;;;;8.13;6.10;;;12.20;49.60;;;;;;6182214;23;20016;-71
2021/05/08 09:30:56;;;;;;;8.45;5.43;;;12.40;49.20;;;;;;6155691;23;20107;-72
2021/05/08 09:33:25;;;;;;;13.10;6.07;;;12.40;49.20;;;;;;6179880;23;20032;-71
2021/05/08 09:36:10;;;;;;;7.72;5.45;;;12.30;49.30;;;;;;6182295;23;20104;-71
2021/05/08 09:38:40;;;;;;;9.60;5.55;;;12.30;47.50;;;;;;6183470;23;20466;-69
2021/05/08 09:41:16;;;;;;;8.32;5.38;;;12.20;48.90;;;;;;6182471;23;20017;-68
2021/05/08 09:43:43;;;;;;;10.15;5.97;;;12.20;49.10;;;;;;6183393;23;20096;-71
2021/05/08 09:46:22;;;;;;;8.10;5.40;;;12.30;47.90;;;;;;6180570;23;20629;-70
2021/05/08 09:48:48;;;;;;;8.77;5.03;;;12.30;47.80;;;;;;6158143;23;20017;-69
2021/05/08 09:51:23;;;;;;;9.82;5.30;;;12.30;47.80;;;;;;6180734;23;20530;-69
2021/05/08 09:53:52;;;;;;;8.25;4.75;;;12.30;47.30;;;;;;6181887;23;20466;-68
2021/05/08 09:56:43;;;;;;;10.27;5.45;;;12.40;47.30;;;;;;6182154;23;20074;-68
2021/05/08 09:59:28;;;;;;;7.68;5.43;;;12.40;47.30;;;;;;6182126;23;20035;-68
2021/05/08 10:02:06;;;;;;;6.20;4.50;;;12.50;46.40;;;;;;6156519;23;20016;-69
2021/05/08 10:04:44;;;;;;;9.00;5.45;;;12.50;44.50;;;;;;6154193;23;20028;-68
2021/05/08 10:07:11;;;;;;;7.75;4.90;;;12.50;46.40;;;;;;6182798;23;20335;-69
2021/05/08 10:09:39;;;;;;;8.10;5.03;;;12.50;44.80;;;;;;6182451;23;20431;-69
2021/05/08 10:12:10;;;;;;;6.97;4.90;;;12.50;43.20;;;;;;6182568;23;20092;-69
2021/05/08 10:14:40;;;;;;;7.15;5.03;;;12.60;43.50;;;;;;6181453;23;20033;-69
2021/05/08 10:17:09;;;;;;;8.38;5.70;;;12.70;44.20;;;;;;6180599;23;20019;-69
2021/05/08 10:19:37;;;;;;;9.70;5.15;;;12.70;45.50;;;;;;6180526;23;20028;-68
2021/05/08 10:22:07;;;;;;;9.02;5.20;;;12.80;46.60;;;;;;6180577;23;20013;-68
2021/05/08 10:24:35;;;;;;;11.02;5.82;;;12.90;46.10;;;;;;6154695;23;20020;-69
2021/05/08 10:27:01;;;;;;;8.60;5.80;;;12.90;45.90;;;;;;6181938;23;20027;-69
2021/05/08 10:29:29;;;;;;;9.13;4.82;;;12.90;45.90;;;;;;6180396;23;20096;-70
2021/05/08 10:32:03;;;;;;;8.70;5.30;;;13.00;45.10;;;;;;6179847;23;20013;-69
2021/05/08 10:34:31;;;;;;;12.23;6.15;;;13.10;44.40;;;;;;6180602;23;20082;-70
2021/05/08 10:37:08;;;;;;;13.77;5.65;;;13.00;43.60;;;;;;6181695;23;20050;-70
2021/05/08 10:39:58;;;;;;;9.70;4.68;;;13.00;44.60;;;;;;6182134;23;20017;-69
2021/05/08 10:42:47;;;;;;;9.90;5.32;;;13.10;44.30;;;;;;6157096;23;20017;-69
2021/05/08 10:45:15;;;;;;;8.07;5.47;;;13.10;43.30;;;;;;6180706;23;20013;-67
2021/05/08 10:47:56;;;;;;;9.38;5.68;;;13.10;43.10;;;;;;6181368;23;20502;-70
2021/05/08 10:50:35;;;;;;;8.07;5.55;;;13.10;44.30;;;;;;6154599;23;20044;-69
2021/05/08 10:53:07;;;;;;;8.55;5.38;;;13.00;44.30;;;;;;6180200;23;20016;-70
2021/05/08 10:55:53;;;;;;;7.72;5.30;;;13.10;44.20;;;;;;6180685;23;20009;-70
2021/05/08 10:58:20;;;;;;;9.90;5.35;;;13.10;44.20;;;;;;6183704;23;20097;-70
2021/05/08 11:00:50;;;;;;;11.32;5.82;;;13.10;44.40;;;;;;6184064;23;20017;-70
2021/05/08 11:03:22;;;;;;;7.85;5.93;;;13.10;44.80;;;;;;6155662;23;20038;-70
2021/05/08 11:06:04;;;;;;;8.57;5.40;;;13.10;45.00;;;;;;6156485;23;20048;-70
2021/05/08 11:08:30;;;;;;;7.65;5.72;;;13.20;45.30;;;;;;6182526;23;20040;-70
2021/05/08 11:10:56;;;;;;;7.97;5.38;;;13.20;44.40;;;;;;6183308;23;20017;-70
2021/05/08 11:13:24;;;;;;;10.43;5.90;;;13.30;44.50;;;;;;6181394;23;20040;-70
2021/05/08 11:16:03;;;;;;;11.82;6.22;;;13.30;45.40;;;;;;6182063;23;20027;-71
2021/05/08 11:18:40;;;;;;;8.68;6.25;;;13.40;44.00;;;;;;6181855;23;20017;-70
2021/05/08 11:21:15;;;;;;;9.88;5.88;;;13.40;44.20;;;;;;6182877;23;20036;-69
2021/05/08 11:23:50;;;;;;;8.98;6.43;;;13.30;45.00;;;;;;6156212;23;20009;-71
2021/05/08 11:26:38;;;;;;;10.20;6.20;;;13.40;44.70;;;;;;6178399;23;20013;-70
2021/05/08 11:29:35;;;;;;;12.10;7.13;;;13.40;45.20;;;;;;6173431;23;20029;-70
2021/05/08 11:32:01;;;;;;;9.88;7.05;;;13.40;45.80;;;;;;6173062;23;20044;-70
2021/05/08 11:34:29;;;;;;;15.27;7.85;;;13.40;45.30;;;;;;6183291;23;20013;-70
2021/05/08 11:36:59;;;;;;;14.68;8.38;;;13.50;46.70;;;;;;6183281;23;20010;-70
2021/05/08 11:39:26;;;;;;;12.18;7.55;;;13.60;47.30;;;;;;6181271;23;20017;-70
2021/05/08 11:42:00;;;;;;;12.88;7.68;;;13.60;46.50;;;;;;6182262;23;20079;-70
2021/05/08 11:44:37;;;;;;;14.95;8.10;;;13.70;44.10;;;;;;6183289;23;20013;-70
2021/05/08 11:47:06;;;;;;;13.40;8.40;;;13.60;44.10;;;;;;6183674;23;20017;-71
2021/05/08 11:49:37;;;;;;;12.35;8.95;;;13.60;44.80;;;;;;6181164;23;20021;-70
2021/05/08 11:52:05;;;;;;;19.17;8.93;;;13.70;44.80;;;;;;6182403;23;20013;-69
2021/05/08 11:54:42;;;;;;;13.73;8.15;;;13.80;44.60;;;;;;6181192;23;20072;-71
2021/05/08 11:57:21;;;;;;;18.02;9.40;;;13.80;43.90;;;;;;6181387;23;20020;-71
2021/05/08 11:59:47;;;;;;;13.98;8.85;;;13.80;44.30;;;;;;6155963;23;20017;-71
2021/05/08 12:02:18;;;;;;;16.10;9.40;;;13.70;45.00;;;;;;6181459;23;20017;-71
2021/05/08 12:04:56;;;;;;;18.00;9.52;;;13.70;44.80;;;;;;6182345;23;20024;-71
2021/05/08 12:07:31;;;;;;;16.77;10.07;;;13.70;45.00;;;;;;6182436;23;20017;-71
2021/05/08 12:10:19;;;;;;;15.50;9.77;;;13.70;46.00;;;;;;6182835;23;20021;-71
2021/05/08 12:12:53;;;;;;;14.80;9.25;;;13.80;45.00;;;;;;6182852;23;20063;-72
2021/05/08 12:15:33;;;;;;;14.02;8.25;;;13.80;45.20;;;;;;6183671;23;20024;-72
2021/05/08 12:18:01;;;;;;;14.52;9.55;;;13.80;45.10;;;;;;6183470;23;20431;-73
2021/05/08 12:20:29;;;;;;;17.70;9.80;;;13.80;46.20;;;;;;6181878;23;20056;-70
2021/05/08 12:23:00;;;;;;;12.77;8.70;;;13.80;46.40;;;;;;6181444;23;20068;-71
2021/05/08 12:25:26;;;;;;;12.77;7.75;;;13.80;47.30;;;;;;6157744;23;20602;-71
2021/05/08 12:28:18;;;;;;;12.60;8.45;;;13.90;46.40;;;;;;6156313;23;20099;-70
2021/05/08 12:30:47;;;;;;;10.23;7.25;;;13.90;46.40;;;;;;6180668;23;20041;-70
2021/05/08 12:33:21;;;;;;;13.82;7.55;;;13.90;46.80;;;;;;6180885;23;20010;-71
2021/05/08 12:35:48;;;;;;;10.90;6.22;;;13.80;47.40;;;;;;6182275;23;20044;-71
2021/05/08 12:38:17;;;;;;;11.20;6.15;;;13.70;46.80;;;;;;6180838;23;20044;-71
2021/05/08 12:40:43;;;;;;;8.35;6.40;;;13.60;48.30;;;;;;6181507;23;20040;-73
2021/05/08 12:43:09;;;;;;;7.32;6.10;;;13.60;49.00;;;;;;6180694;23;20021;-72
2021/05/08 12:45:35;;;;;;;9.43;6.28;;;13.50;49.60;;;;;;6183109;23;20105;-75
2021/05/08 12:48:01;;;;;;;8.55;5.22;;;13.40;50.40;;;;;;6180292;23;20087;-70